sensor_id;sensor_type;location;lat;lon;timestamp;temperature;humidity
53880;DHT22;39791;53.184;5.486;2022-08-25T00:02:10;22.30;99.90
53880;DHT22;39791;53.184;5.486;2022-08-25T00:04:36;22.10;99.90
53880;DHT22;39791;53.184;5.486;2022-08-25T00:07:03;22.30;99.90
53880;DHT22;39791;53.184;5.486;2022-08-25T00:09:30;22.10;99.90
53880;DHT22;39791;53.184;5.486;2022-08-25T00:11:57;22.10;99.90
53880;DHT22;39791;53.184;5.486;2022-08-25T00:14:29;22.10;99.90
53880;DHT22;39791;53.184;5.486;2022-08-25T00:16:55;22.40;99.90
53880;DHT22;39791;53.184;5.486;2022-08-25T00:19:26;22.20;99.90
53880;DHT22;39791;53.184;5.486;2022-08-25T00:21:52;22.20;99.90
53880;DHT22;39791;53.184;5.486;2022-08-25T00:24:19;22.30;99.90
53880;DHT22;39791;53.184;5.486;2022-08-25T00:26:47;22.20;99.90
53880;DHT22;39791;53.184;5.486;2022-08-25T00:29:13;22.30;99.90
53880;DHT22;39791;53.184;5.486;2022-08-25T00:31:40;22.10;99.90
53880;DHT22;39791;53.184;5.486;2022-08-25T00:34:08;22.20;99.90
53880;DHT22;39791;53.184;5.486;2022-08-25T00:36:35;22.10;99.90
53880;DHT22;39791;53.184;5.486;2022-08-25T00:39:01;22.30;99.90
53880;DHT22;39791;53.184;5.486;2022-08-25T00:41:26;22.40;99.90
53880;DHT22;39791;53.184;5.486;2022-08-25T00:44:01;22.40;99.90
53880;DHT22;39791;53.184;5.486;2022-08-25T00:46:49;22.20;99.90
53880;DHT22;39791;53.184;5.486;2022-08-25T00:54:34;22.20;99.90
53880;DHT22;39791;53.184;5.486;2022-08-25T00:57:05;22.00;99.90
53880;DHT22;39791;53.184;5.486;2022-08-25T00:59:31;22.10;99.90
53880;DHT22;39791;53.184;5.486;2022-08-25T01:01:57;21.80;99.90
53880;DHT22;39791;53.184;5.486;2022-08-25T01:04:24;21.90;99.90
53880;DHT22;39791;53.184;5.486;2022-08-25T01:06:50;21.80;99.90
53880;DHT22;39791;53.184;5.486;2022-08-25T01:09:18;22.00;99.90
53880;DHT22;39791;53.184;5.486;2022-08-25T01:11:45;21.80;99.90
53880;DHT22;39791;53.184;5.486;2022-08-25T01:14:15;22.00;99.90
53880;DHT22;39791;53.184;5.486;2022-08-25T01:16:41;21.80;99.90
53880;DHT22;39791;53.184;5.486;2022-08-25T01:19:08;21.80;99.90
53880;DHT22;39791;53.184;5.486;2022-08-25T01:21:39;21.90;99.90
53880;DHT22;39791;53.184;5.486;2022-08-25T01:24:05;21.90;99.90
53880;DHT22;39791;53.184;5.486;2022-08-25T01:26:33;22.10;99.90
53880;DHT22;39791;53.184;5.486;2022-08-25T01:29:00;22.20;99.90
53880;DHT22;39791;53.184;5.486;2022-08-25T01:31:45;22.20;99.90
53880;DHT22;39791;53.184;5.486;2022-08-25T01:34:13;22.10;99.90
53880;DHT22;39791;53.184;5.486;2022-08-25T01:36:41;22.20;99.90
53880;DHT22;39791;53.184;5.486;2022-08-25T01:39:08;22.30;99.90
53880;DHT22;39791;53.184;5.486;2022-08-25T01:44:01;22.30;99.90
53880;DHT22;39791;53.184;5.486;2022-08-25T01:46:27;22.40;99.90
53880;DHT22;39791;53.184;5.486;2022-08-25T01:48:52;22.50;99.90
53880;DHT22;39791;53.184;5.486;2022-08-25T01:51:20;22.60;99.90
53880;DHT22;39791;53.184;5.486;2022-08-25T01:53:47;22.70;99.90
53880;DHT22;39791;53.184;5.486;2022-08-25T01:56:14;22.60;99.90
53880;DHT22;39791;53.184;5.486;2022-08-25T01:58:44;22.60;99.90
53880;DHT22;39791;53.184;5.486;2022-08-25T02:01:14;22.60;99.90
53880;DHT22;39791;53.184;5.486;2022-08-25T02:03:44;22.70;99.90
53880;DHT22;39791;53.184;5.486;2022-08-25T02:06:11;22.70;99.90
53880;DHT22;39791;53.184;5.486;2022-08-25T02:08:37;22.60;99.90
53880;DHT22;39791;53.184;5.486;2022-08-25T02:11:03;22.60;99.90
53880;DHT22;39791;53.184;5.486;2022-08-25T02:13:29;22.50;99.90
53880;DHT22;39791;53.184;5.486;2022-08-25T02:15:56;22.40;99.90
53880;DHT22;39791;53.184;5.486;2022-08-25T02:18:23;22.40;99.90
53880;DHT22;39791;53.184;5.486;2022-08-25T02:20:49;22.30;99.90
53880;DHT22;39791;53.184;5.486;2022-08-25T02:23:14;22.20;99.90
53880;DHT22;39791;53.184;5.486;2022-08-25T02:25:41;22.30;99.90
53880;DHT22;39791;53.184;5.486;2022-08-25T02:28:07;22.20;99.90
53880;DHT22;39791;53.184;5.486;2022-08-25T02:30:34;22.20;99.90
53880;DHT22;39791;53.184;5.486;2022-08-25T02:33:00;22.10;99.90
53880;DHT22;39791;53.184;5.486;2022-08-25T02:35:26;22.00;99.90
53880;DHT22;39791;53.184;5.486;2022-08-25T02:37:52;21.90;99.90
53880;DHT22;39791;53.184;5.486;2022-08-25T02:40:18;21.90;99.90
53880;DHT22;39791;53.184;5.486;2022-08-25T02:42:49;21.80;99.90
53880;DHT22;39791;53.184;5.486;2022-08-25T02:45:16;21.70;99.90
53880;DHT22;39791;53.184;5.486;2022-08-25T02:47:43;21.70;99.90
53880;DHT22;39791;53.184;5.486;2022-08-25T02:50:10;21.60;99.90
53880;DHT22;39791;53.184;5.486;2022-08-25T02:52:36;21.60;99.90
53880;DHT22;39791;53.184;5.486;2022-08-25T02:55:04;21.50;99.90
53880;DHT22;39791;53.184;5.486;2022-08-25T02:57:30;21.40;99.90
53880;DHT22;39791;53.184;5.486;2022-08-25T02:59:56;21.40;99.90
53880;DHT22;39791;53.184;5.486;2022-08-25T03:02:23;21.70;99.90
53880;DHT22;39791;53.184;5.486;2022-08-25T03:04:50;21.20;99.90
53880;DHT22;39791;53.184;5.486;2022-08-25T03:07:17;21.20;99.90
53880;DHT22;39791;53.184;5.486;2022-08-25T03:09:43;21.10;99.90
53880;DHT22;39791;53.184;5.486;2022-08-25T03:12:09;21.20;99.90
53880;DHT22;39791;53.184;5.486;2022-08-25T03:14:36;21.20;99.90
53880;DHT22;39791;53.184;5.486;2022-08-25T03:17:02;21.10;99.90
53880;DHT22;39791;53.184;5.486;2022-08-25T03:19:27;21.10;99.90
53880;DHT22;39791;53.184;5.486;2022-08-25T03:21:53;21.10;99.90
53880;DHT22;39791;53.184;5.486;2022-08-25T03:24:22;21.00;99.90
53880;DHT22;39791;53.184;5.486;2022-08-25T03:26:47;21.00;99.90
53880;DHT22;39791;53.184;5.486;2022-08-25T03:29:26;20.90;99.90
53880;DHT22;39791;53.184;5.486;2022-08-25T03:31:54;21.00;99.90
53880;DHT22;39791;53.184;5.486;2022-08-25T03:34:21;21.00;99.90
53880;DHT22;39791;53.184;5.486;2022-08-25T03:36:49;21.00;99.90
53880;DHT22;39791;53.184;5.486;2022-08-25T03:39:17;20.90;99.90
53880;DHT22;39791;53.184;5.486;2022-08-25T03:41:43;20.90;99.90
53880;DHT22;39791;53.184;5.486;2022-08-25T03:44:10;20.90;99.90
53880;DHT22;39791;53.184;5.486;2022-08-25T03:46:44;20.80;99.90
53880;DHT22;39791;53.184;5.486;2022-08-25T03:49:13;20.90;99.90
53880;DHT22;39791;53.184;5.486;2022-08-25T03:51:44;20.80;99.90
53880;DHT22;39791;53.184;5.486;2022-08-25T03:54:18;20.90;99.90
53880;DHT22;39791;53.184;5.486;2022-08-25T03:56:44;20.80;99.90
53880;DHT22;39791;53.184;5.486;2022-08-25T03:59:10;20.80;99.90
53880;DHT22;39791;53.184;5.486;2022-08-25T04:01:37;20.70;99.90
53880;DHT22;39791;53.184;5.486;2022-08-25T04:04:05;20.70;99.90
53880;DHT22;39791;53.184;5.486;2022-08-25T04:06:30;20.70;99.90
53880;DHT22;39791;53.184;5.486;2022-08-25T04:08:56;20.70;99.90
53880;DHT22;39791;53.184;5.486;2022-08-25T04:11:24;20.60;99.90
53880;DHT22;39791;53.184;5.486;2022-08-25T04:13:51;20.60;99.90
53880;DHT22;39791;53.184;5.486;2022-08-25T04:16:20;20.60;99.90
53880;DHT22;39791;53.184;5.486;2022-08-25T04:18:47;20.50;99.90
53880;DHT22;39791;53.184;5.486;2022-08-25T04:21:14;20.50;99.90
53880;DHT22;39791;53.184;5.486;2022-08-25T04:23:42;20.60;99.90
53880;DHT22;39791;53.184;5.486;2022-08-25T04:26:33;20.50;99.90
53880;DHT22;39791;53.184;5.486;2022-08-25T04:29:00;20.50;99.90
53880;DHT22;39791;53.184;5.486;2022-08-25T04:31:27;20.50;99.90
53880;DHT22;39791;53.184;5.486;2022-08-25T04:33:53;20.50;99.90
53880;DHT22;39791;53.184;5.486;2022-08-25T04:36:19;20.50;99.90
53880;DHT22;39791;53.184;5.486;2022-08-25T04:38:47;20.40;99.90
53880;DHT22;39791;53.184;5.486;2022-08-25T04:41:16;20.50;99.90
53880;DHT22;39791;53.184;5.486;2022-08-25T04:43:43;20.40;99.90
53880;DHT22;39791;53.184;5.486;2022-08-25T04:46:13;20.40;99.90
53880;DHT22;39791;53.184;5.486;2022-08-25T04:48:40;20.40;99.90
53880;DHT22;39791;53.184;5.486;2022-08-25T04:51:12;20.50;99.90
53880;DHT22;39791;53.184;5.486;2022-08-25T04:53:38;20.40;99.90
53880;DHT22;39791;53.184;5.486;2022-08-25T04:56:05;20.50;99.90
53880;DHT22;39791;53.184;5.486;2022-08-25T04:58:31;20.50;99.90
53880;DHT22;39791;53.184;5.486;2022-08-25T05:01:02;20.50;99.90
53880;DHT22;39791;53.184;5.486;2022-08-25T05:03:27;20.60;99.90
53880;DHT22;39791;53.184;5.486;2022-08-25T05:05:53;20.60;99.90
53880;DHT22;39791;53.184;5.486;2022-08-25T05:08:18;20.60;99.90
53880;DHT22;39791;53.184;5.486;2022-08-25T05:10:44;20.60;99.90
53880;DHT22;39791;53.184;5.486;2022-08-25T05:13:09;20.60;99.90
53880;DHT22;39791;53.184;5.486;2022-08-25T05:15:35;20.70;99.90
53880;DHT22;39791;53.184;5.486;2022-08-25T05:18:17;20.60;99.90
53880;DHT22;39791;53.184;5.486;2022-08-25T05:20:43;20.70;99.90
53880;DHT22;39791;53.184;5.486;2022-08-25T05:23:09;20.70;99.90
53880;DHT22;39791;53.184;5.486;2022-08-25T05:25:35;20.70;99.90
53880;DHT22;39791;53.184;5.486;2022-08-25T05:28:01;20.80;99.90
53880;DHT22;39791;53.184;5.486;2022-08-25T05:30:27;20.70;99.90
53880;DHT22;39791;53.184;5.486;2022-08-25T05:32:52;20.60;99.90
53880;DHT22;39791;53.184;5.486;2022-08-25T05:35:18;20.70;99.90
53880;DHT22;39791;53.184;5.486;2022-08-25T05:37:45;20.80;99.90
53880;DHT22;39791;53.184;5.486;2022-08-25T05:40:10;20.80;99.90
53880;DHT22;39791;53.184;5.486;2022-08-25T05:42:36;20.80;99.90
53880;DHT22;39791;53.184;5.486;2022-08-25T05:45:03;20.90;99.90
53880;DHT22;39791;53.184;5.486;2022-08-25T05:47:29;20.90;99.90
53880;DHT22;39791;53.184;5.486;2022-08-25T05:49:54;21.00;99.90
53880;DHT22;39791;53.184;5.486;2022-08-25T05:52:20;21.00;99.90
53880;DHT22;39791;53.184;5.486;2022-08-25T05:54:46;21.00;99.90
53880;DHT22;39791;53.184;5.486;2022-08-25T05:57:11;21.00;99.90
53880;DHT22;39791;53.184;5.486;2022-08-25T05:59:37;21.10;99.90
53880;DHT22;39791;53.184;5.486;2022-08-25T06:02:03;21.20;99.90
53880;DHT22;39791;53.184;5.486;2022-08-25T06:04:47;21.20;99.90
53880;DHT22;39791;53.184;5.486;2022-08-25T06:07:12;21.30;99.90
53880;DHT22;39791;53.184;5.486;2022-08-25T06:09:39;21.30;99.90
53880;DHT22;39791;53.184;5.486;2022-08-25T06:12:06;21.40;99.90
53880;DHT22;39791;53.184;5.486;2022-08-25T06:14:32;21.50;99.90
53880;DHT22;39791;53.184;5.486;2022-08-25T06:16:58;21.50;99.90
53880;DHT22;39791;53.184;5.486;2022-08-25T06:19:25;21.50;99.90
53880;DHT22;39791;53.184;5.486;2022-08-25T06:21:55;21.60;99.90
53880;DHT22;39791;53.184;5.486;2022-08-25T06:24:21;21.70;99.90
53880;DHT22;39791;53.184;5.486;2022-08-25T06:26:47;21.80;99.90
53880;DHT22;39791;53.184;5.486;2022-08-25T06:29:12;21.90;99.90
53880;DHT22;39791;53.184;5.486;2022-08-25T06:31:38;22.00;99.90
53880;DHT22;39791;53.184;5.486;2022-08-25T06:34:04;22.00;99.90
53880;DHT22;39791;53.184;5.486;2022-08-25T06:36:30;22.10;99.90
53880;DHT22;39791;53.184;5.486;2022-08-25T06:38:56;22.20;99.90
53880;DHT22;39791;53.184;5.486;2022-08-25T06:41:22;22.30;99.90
53880;DHT22;39791;53.184;5.486;2022-08-25T06:43:47;22.30;99.90
53880;DHT22;39791;53.184;5.486;2022-08-25T06:46:19;22.50;99.90
53880;DHT22;39791;53.184;5.486;2022-08-25T06:48:45;22.60;99.90
53880;DHT22;39791;53.184;5.486;2022-08-25T06:51:14;22.60;99.90
53880;DHT22;39791;53.184;5.486;2022-08-25T06:53:41;22.80;99.90
53880;DHT22;39791;53.184;5.486;2022-08-25T06:56:07;22.80;99.90
53880;DHT22;39791;53.184;5.486;2022-08-25T06:58:33;22.90;99.90
53880;DHT22;39791;53.184;5.486;2022-08-25T07:01:13;23.10;99.90
53880;DHT22;39791;53.184;5.486;2022-08-25T07:03:40;23.10;99.90
53880;DHT22;39791;53.184;5.486;2022-08-25T07:06:06;23.20;99.90
53880;DHT22;39791;53.184;5.486;2022-08-25T07:08:32;23.70;99.90
53880;DHT22;39791;53.184;5.486;2022-08-25T07:11:06;23.70;99.90
53880;DHT22;39791;53.184;5.486;2022-08-25T07:13:33;23.80;99.90
53880;DHT22;39791;53.184;5.486;2022-08-25T07:16:00;23.90;99.90
53880;DHT22;39791;53.184;5.486;2022-08-25T07:18:25;23.80;1.00
53880;DHT22;39791;53.184;5.486;2022-08-25T07:20:51;23.80;99.90
53880;DHT22;39791;53.184;5.486;2022-08-25T07:23:18;23.90;99.90
53880;DHT22;39791;53.184;5.486;2022-08-25T07:25:44;24.00;99.90
53880;DHT22;39791;53.184;5.486;2022-08-25T07:28:10;24.20;67.50
53880;DHT22;39791;53.184;5.486;2022-08-25T07:30:36;24.20;99.90
53880;DHT22;39791;53.184;5.486;2022-08-25T07:33:02;24.20;99.90
53880;DHT22;39791;53.184;5.486;2022-08-25T07:35:27;24.20;35.70
53880;DHT22;39791;53.184;5.486;2022-08-25T07:37:56;24.30;99.90
53880;DHT22;39791;53.184;5.486;2022-08-25T07:40:25;24.50;99.90
53880;DHT22;39791;53.184;5.486;2022-08-25T07:42:52;24.60;99.90
53880;DHT22;39791;53.184;5.486;2022-08-25T07:45:19;24.70;82.00
53880;DHT22;39791;53.184;5.486;2022-08-25T07:47:45;25.00;1.00
53880;DHT22;39791;53.184;5.486;2022-08-25T07:50:12;24.90;99.90
53880;DHT22;39791;53.184;5.486;2022-08-25T07:52:39;25.10;99.90
53880;DHT22;39791;53.184;5.486;2022-08-25T07:55:06;25.60;1.00
53880;DHT22;39791;53.184;5.486;2022-08-25T07:57:33;26.00;99.90
53880;DHT22;39791;53.184;5.486;2022-08-25T07:59:59;26.40;1.00
53880;DHT22;39791;53.184;5.486;2022-08-25T08:02:25;26.60;1.00
53880;DHT22;39791;53.184;5.486;2022-08-25T08:04:51;26.90;99.90
53880;DHT22;39791;53.184;5.486;2022-08-25T08:07:24;27.10;65.80
53880;DHT22;39791;53.184;5.486;2022-08-25T08:09:51;27.30;99.90
53880;DHT22;39791;53.184;5.486;2022-08-25T08:12:17;27.50;69.30
53880;DHT22;39791;53.184;5.486;2022-08-25T08:14:43;27.60;1.00
53880;DHT22;39791;53.184;5.486;2022-08-25T08:17:10;27.80;99.90
53880;DHT22;39791;53.184;5.486;2022-08-25T08:19:36;28.00;99.90
53880;DHT22;39791;53.184;5.486;2022-08-25T08:22:03;28.10;99.90
53880;DHT22;39791;53.184;5.486;2022-08-25T08:24:30;28.10;57.80
53880;DHT22;39791;53.184;5.486;2022-08-25T08:26:56;28.30;1.00
53880;DHT22;39791;53.184;5.486;2022-08-25T08:29:21;28.40;1.00
53880;DHT22;39791;53.184;5.486;2022-08-25T08:31:47;28.60;1.00
53880;DHT22;39791;53.184;5.486;2022-08-25T08:34:13;28.70;99.90
53880;DHT22;39791;53.184;5.486;2022-08-25T08:36:39;28.70;99.90
53880;DHT22;39791;53.184;5.486;2022-08-25T08:39:05;28.70;99.90
53880;DHT22;39791;53.184;5.486;2022-08-25T08:41:55;28.90;99.90
53880;DHT22;39791;53.184;5.486;2022-08-25T08:52:46;29.20;95.50
53880;DHT22;39791;53.184;5.486;2022-08-25T08:55:36;29.30;61.40
53880;DHT22;39791;53.184;5.486;2022-08-25T08:58:08;29.30;13.70
53880;DHT22;39791;53.184;5.486;2022-08-25T09:00:39;29.30;1.40
53880;DHT22;39791;53.184;5.486;2022-08-25T09:03:10;29.50;1.00
53880;DHT22;39791;53.184;5.486;2022-08-25T09:05:52;29.50;1.00
53880;DHT22;39791;53.184;5.486;2022-08-25T09:08:19;29.60;1.00
53880;DHT22;39791;53.184;5.486;2022-08-25T09:11:01;29.50;1.00
53880;DHT22;39791;53.184;5.486;2022-08-25T09:16:38;29.80;1.00
53880;DHT22;39791;53.184;5.486;2022-08-25T09:19:58;29.90;1.00
53880;DHT22;39791;53.184;5.486;2022-08-25T09:22:47;30.20;1.00
53880;DHT22;39791;53.184;5.486;2022-08-25T09:25:36;30.20;1.00
53880;DHT22;39791;53.184;5.486;2022-08-25T09:28:17;30.30;1.00
53880;DHT22;39791;53.184;5.486;2022-08-25T09:31:03;30.40;1.00
53880;DHT22;39791;53.184;5.486;2022-08-25T09:33:33;30.40;1.00
53880;DHT22;39791;53.184;5.486;2022-08-25T09:35:59;30.70;1.00
53880;DHT22;39791;53.184;5.486;2022-08-25T09:38:26;30.70;1.00
53880;DHT22;39791;53.184;5.486;2022-08-25T09:40:57;30.60;99.90
53880;DHT22;39791;53.184;5.486;2022-08-25T09:48:41;30.40;99.90
53880;DHT22;39791;53.184;5.486;2022-08-25T09:53:35;30.40;99.90
53880;DHT22;39791;53.184;5.486;2022-08-25T09:56:09;30.40;99.90
53880;DHT22;39791;53.184;5.486;2022-08-25T09:58:34;30.50;99.90
53880;DHT22;39791;53.184;5.486;2022-08-25T10:01:06;30.50;99.90
53880;DHT22;39791;53.184;5.486;2022-08-25T10:03:35;30.60;99.90
53880;DHT22;39791;53.184;5.486;2022-08-25T10:06:06;30.70;99.90
53880;DHT22;39791;53.184;5.486;2022-08-25T10:11:28;30.70;99.90
53880;DHT22;39791;53.184;5.486;2022-08-25T10:16:38;31.00;99.90
53880;DHT22;39791;53.184;5.486;2022-08-25T10:21:36;31.20;99.90
53880;DHT22;39791;53.184;5.486;2022-08-25T10:24:03;31.10;99.90
53880;DHT22;39791;53.184;5.486;2022-08-25T10:31:53;31.00;99.90
53880;DHT22;39791;53.184;5.486;2022-08-25T10:34:42;31.00;99.90
53880;DHT22;39791;53.184;5.486;2022-08-25T10:45:28;31.20;99.90
53880;DHT22;39791;53.184;5.486;2022-08-25T10:53:39;31.80;99.90
53880;DHT22;39791;53.184;5.486;2022-08-25T10:56:20;31.80;99.90
53880;DHT22;39791;53.184;5.486;2022-08-25T10:59:11;31.90;99.90
53880;DHT22;39791;53.184;5.486;2022-08-25T11:02:07;32.00;99.90
53880;DHT22;39791;53.184;5.486;2022-08-25T11:07:25;32.00;99.90
53880;DHT22;39791;53.184;5.486;2022-08-25T11:09:57;32.10;99.90
53880;DHT22;39791;53.184;5.486;2022-08-25T11:12:34;32.10;99.90
53880;DHT22;39791;53.184;5.486;2022-08-25T11:15:11;31.90;99.90
53880;DHT22;39791;53.184;5.486;2022-08-25T11:20:11;31.50;99.90
53880;DHT22;39791;53.184;5.486;2022-08-25T11:22:40;31.40;99.90
53880;DHT22;39791;53.184;5.486;2022-08-25T11:27:51;31.10;99.90
53880;DHT22;39791;53.184;5.486;2022-08-25T11:30:18;31.20;99.90
53880;DHT22;39791;53.184;5.486;2022-08-25T11:32:48;31.20;99.90
53880;DHT22;39791;53.184;5.486;2022-08-25T11:35:18;31.20;99.90
53880;DHT22;39791;53.184;5.486;2022-08-25T11:40:53;31.10;99.90
53880;DHT22;39791;53.184;5.486;2022-08-25T11:43:31;31.20;99.90
53880;DHT22;39791;53.184;5.486;2022-08-25T11:46:16;31.20;99.90
53880;DHT22;39791;53.184;5.486;2022-08-25T11:49:16;31.20;99.90
53880;DHT22;39791;53.184;5.486;2022-08-25T11:51:47;31.20;99.90
53880;DHT22;39791;53.184;5.486;2022-08-25T11:54:22;31.10;99.90
53880;DHT22;39791;53.184;5.486;2022-08-25T11:57:01;31.10;99.90
53880;DHT22;39791;53.184;5.486;2022-08-25T12:10:57;31.10;99.90
53880;DHT22;39791;53.184;5.486;2022-08-25T12:16:07;31.10;99.90
53880;DHT22;39791;53.184;5.486;2022-08-25T12:18:52;31.20;99.90
53880;DHT22;39791;53.184;5.486;2022-08-25T12:21:29;31.10;99.90
53880;DHT22;39791;53.184;5.486;2022-08-25T12:24:06;31.00;99.90
53880;DHT22;39791;53.184;5.486;2022-08-25T12:26:54;31.00;99.90
53880;DHT22;39791;53.184;5.486;2022-08-25T12:29:39;31.00;99.90
53880;DHT22;39791;53.184;5.486;2022-08-25T12:32:24;31.10;99.90
53880;DHT22;39791;53.184;5.486;2022-08-25T12:38:09;31.20;99.90
53880;DHT22;39791;53.184;5.486;2022-08-25T12:40:53;31.20;99.90
53880;DHT22;39791;53.184;5.486;2022-08-25T12:43:31;31.20;99.90
53880;DHT22;39791;53.184;5.486;2022-08-25T12:49:10;31.00;99.90
53880;DHT22;39791;53.184;5.486;2022-08-25T12:54:19;31.00;99.90
53880;DHT22;39791;53.184;5.486;2022-08-25T12:56:51;31.10;99.90
53880;DHT22;39791;53.184;5.486;2022-08-25T12:59:34;31.10;99.90
53880;DHT22;39791;53.184;5.486;2022-08-25T13:02:27;31.10;99.90
53880;DHT22;39791;53.184;5.486;2022-08-25T13:05:36;31.20;99.90
53880;DHT22;39791;53.184;5.486;2022-08-25T13:08:52;31.10;99.90
53880;DHT22;39791;53.184;5.486;2022-08-25T13:11:29;31.10;99.90
53880;DHT22;39791;53.184;5.486;2022-08-25T13:16:58;30.90;99.90
53880;DHT22;39791;53.184;5.486;2022-08-25T13:19:25;30.90;99.90
53880;DHT22;39791;53.184;5.486;2022-08-25T13:21:53;31.00;99.90
53880;DHT22;39791;53.184;5.486;2022-08-25T13:24:31;30.90;99.90
53880;DHT22;39791;53.184;5.486;2022-08-25T13:27:07;31.00;99.90
53880;DHT22;39791;53.184;5.486;2022-08-25T13:29:36;31.00;99.90
53880;DHT22;39791;53.184;5.486;2022-08-25T13:32:13;31.00;99.90
53880;DHT22;39791;53.184;5.486;2022-08-25T13:34:41;31.00;99.90
53880;DHT22;39791;53.184;5.486;2022-08-25T13:37:10;31.10;99.90
53880;DHT22;39791;53.184;5.486;2022-08-25T13:42:47;31.20;99.90
53880;DHT22;39791;53.184;5.486;2022-08-25T13:45:29;31.20;99.90
53880;DHT22;39791;53.184;5.486;2022-08-25T13:47:55;31.20;99.90
53880;DHT22;39791;53.184;5.486;2022-08-25T13:55:27;31.20;99.90
53880;DHT22;39791;53.184;5.486;2022-08-25T13:57:56;31.20;99.90
53880;DHT22;39791;53.184;5.486;2022-08-25T14:00:28;31.20;99.90
53880;DHT22;39791;53.184;5.486;2022-08-25T14:02:56;31.10;99.90
53880;DHT22;39791;53.184;5.486;2022-08-25T14:05:37;31.20;99.90
53880;DHT22;39791;53.184;5.486;2022-08-25T14:08:06;31.20;99.90
53880;DHT22;39791;53.184;5.486;2022-08-25T14:10:44;31.00;99.90
53880;DHT22;39791;53.184;5.486;2022-08-25T14:13:12;31.10;99.90
53880;DHT22;39791;53.184;5.486;2022-08-25T14:15:39;31.10;99.90
53880;DHT22;39791;53.184;5.486;2022-08-25T14:20:33;31.00;99.90
53880;DHT22;39791;53.184;5.486;2022-08-25T14:23:12;31.00;99.90
53880;DHT22;39791;53.184;5.486;2022-08-25T14:25:39;30.90;99.90
53880;DHT22;39791;53.184;5.486;2022-08-25T14:28:08;31.00;99.90
53880;DHT22;39791;53.184;5.486;2022-08-25T14:30:38;31.00;99.90
53880;DHT22;39791;53.184;5.486;2022-08-25T14:33:04;31.00;99.90
53880;DHT22;39791;53.184;5.486;2022-08-25T14:35:30;31.10;99.90
53880;DHT22;39791;53.184;5.486;2022-08-25T14:37:56;31.10;99.90
53880;DHT22;39791;53.184;5.486;2022-08-25T14:40:22;31.10;99.90
53880;DHT22;39791;53.184;5.486;2022-08-25T14:42:48;31.10;99.90
53880;DHT22;39791;53.184;5.486;2022-08-25T14:45:15;31.10;99.90
53880;DHT22;39791;53.184;5.486;2022-08-25T14:47:42;31.00;99.90
53880;DHT22;39791;53.184;5.486;2022-08-25T14:50:09;30.90;99.90
53880;DHT22;39791;53.184;5.486;2022-08-25T14:52:35;31.00;99.90
53880;DHT22;39791;53.184;5.486;2022-08-25T14:55:01;31.00;99.90
53880;DHT22;39791;53.184;5.486;2022-08-25T14:57:27;31.00;99.90
53880;DHT22;39791;53.184;5.486;2022-08-25T14:59:53;30.90;99.90
53880;DHT22;39791;53.184;5.486;2022-08-25T15:02:21;30.90;99.90
53880;DHT22;39791;53.184;5.486;2022-08-25T15:04:55;30.80;99.90
53880;DHT22;39791;53.184;5.486;2022-08-25T15:07:22;30.90;99.90
53880;DHT22;39791;53.184;5.486;2022-08-25T15:10:07;30.80;99.90
53880;DHT22;39791;53.184;5.486;2022-08-25T15:12:33;31.00;99.90
53880;DHT22;39791;53.184;5.486;2022-08-25T15:14:59;30.90;99.90
53880;DHT22;39791;53.184;5.486;2022-08-25T15:17:26;31.00;99.90
53880;DHT22;39791;53.184;5.486;2022-08-25T15:19:52;31.00;99.90
53880;DHT22;39791;53.184;5.486;2022-08-25T15:22:17;31.00;99.90
53880;DHT22;39791;53.184;5.486;2022-08-25T15:24:43;31.00;99.90
53880;DHT22;39791;53.184;5.486;2022-08-25T15:27:09;31.00;99.90
53880;DHT22;39791;53.184;5.486;2022-08-25T15:29:36;31.00;99.90
53880;DHT22;39791;53.184;5.486;2022-08-25T15:32:04;31.20;99.90
53880;DHT22;39791;53.184;5.486;2022-08-25T15:34:31;31.00;99.90
53880;DHT22;39791;53.184;5.486;2022-08-25T15:36:57;31.00;99.90
53880;DHT22;39791;53.184;5.486;2022-08-25T15:39:25;30.90;99.90
53880;DHT22;39791;53.184;5.486;2022-08-25T15:41:51;30.90;99.90
53880;DHT22;39791;53.184;5.486;2022-08-25T15:44:17;30.90;99.90
53880;DHT22;39791;53.184;5.486;2022-08-25T15:46:43;30.80;99.90
53880;DHT22;39791;53.184;5.486;2022-08-25T15:49:09;31.00;99.90
53880;DHT22;39791;53.184;5.486;2022-08-25T15:51:34;30.80;99.90
53880;DHT22;39791;53.184;5.486;2022-08-25T15:54:00;30.80;99.90
53880;DHT22;39791;53.184;5.486;2022-08-25T15:56:26;30.70;99.90
53880;DHT22;39791;53.184;5.486;2022-08-25T15:58:52;30.80;99.90
53880;DHT22;39791;53.184;5.486;2022-08-25T16:01:23;30.60;99.90
53880;DHT22;39791;53.184;5.486;2022-08-25T16:03:49;30.60;99.90
53880;DHT22;39791;53.184;5.486;2022-08-25T16:06:16;30.70;99.90
53880;DHT22;39791;53.184;5.486;2022-08-25T16:08:41;30.60;99.90
53880;DHT22;39791;53.184;5.486;2022-08-25T16:11:25;30.50;99.90
53880;DHT22;39791;53.184;5.486;2022-08-25T16:13:53;30.50;99.90
53880;DHT22;39791;53.184;5.486;2022-08-25T16:16:20;30.50;99.90
53880;DHT22;39791;53.184;5.486;2022-08-25T16:18:46;30.50;99.90
53880;DHT22;39791;53.184;5.486;2022-08-25T16:21:15;30.50;99.90
53880;DHT22;39791;53.184;5.486;2022-08-25T16:23:41;30.40;99.90
53880;DHT22;39791;53.184;5.486;2022-08-25T16:26:09;30.40;99.90
53880;DHT22;39791;53.184;5.486;2022-08-25T16:28:35;30.30;99.90
53880;DHT22;39791;53.184;5.486;2022-08-25T16:31:01;30.30;99.90
53880;DHT22;39791;53.184;5.486;2022-08-25T16:33:27;30.20;99.90
53880;DHT22;39791;53.184;5.486;2022-08-25T16:35:58;30.10;99.90
53880;DHT22;39791;53.184;5.486;2022-08-25T16:38:27;30.20;99.90
53880;DHT22;39791;53.184;5.486;2022-08-25T16:40:53;30.00;99.90
53880;DHT22;39791;53.184;5.486;2022-08-25T16:43:18;30.00;99.90
53880;DHT22;39791;53.184;5.486;2022-08-25T16:45:44;30.00;99.90
53880;DHT22;39791;53.184;5.486;2022-08-25T16:48:09;29.90;99.90
53880;DHT22;39791;53.184;5.486;2022-08-25T16:50:37;29.80;99.90
53880;DHT22;39791;53.184;5.486;2022-08-25T16:53:03;29.80;99.90
53880;DHT22;39791;53.184;5.486;2022-08-25T16:55:47;29.70;99.90
53880;DHT22;39791;53.184;5.486;2022-08-25T16:58:13;29.50;99.90
53880;DHT22;39791;53.184;5.486;2022-08-25T17:00:38;29.70;99.90
53880;DHT22;39791;53.184;5.486;2022-08-25T17:03:04;29.60;99.90
53880;DHT22;39791;53.184;5.486;2022-08-25T17:05:31;29.50;99.90
53880;DHT22;39791;53.184;5.486;2022-08-25T17:08:00;29.50;99.90
53880;DHT22;39791;53.184;5.486;2022-08-25T17:10:44;29.40;99.90
53880;DHT22;39791;53.184;5.486;2022-08-25T17:13:10;29.40;99.90
53880;DHT22;39791;53.184;5.486;2022-08-25T17:15:44;29.40;99.90
53880;DHT22;39791;53.184;5.486;2022-08-25T17:18:11;29.30;99.90
53880;DHT22;39791;53.184;5.486;2022-08-25T17:20:38;29.20;99.90
53880;DHT22;39791;53.184;5.486;2022-08-25T17:23:04;29.10;99.90
53880;DHT22;39791;53.184;5.486;2022-08-25T17:25:35;29.00;99.90
53880;DHT22;39791;53.184;5.486;2022-08-25T17:28:02;29.00;99.90
53880;DHT22;39791;53.184;5.486;2022-08-25T17:30:28;28.90;99.90